Time;durP1;ratioP1;P1;durP2;ratioP2;P2;SDS_P1;SDS_P2;PMS_P1;PMS_P2;Temp;Humidity;BMP_temperature;BMP_pressure;BME280_temperature;BME280_humidity;BME280_pressure;Samples;Min_cycle;Max_cycle;Signal;HPM_P1;HPM_P2
2021/08/17 00:01:11;;;;;;;;;22.50;20.50;;;;;17.17;59.33;101894.19;4948194;28;46333;-68
2021/08/17 00:03:37;;;;;;;;;21.50;17.00;;;;;17.14;58.92;101889.19;4958257;28;45393;-73
2021/08/17 00:06:04;;;;;;;;;21.50;18.75;;;;;17.09;59.30;101892.34;4950990;28;45532;-70
2021/08/17 00:08:30;;;;;;;;;21.25;17.25;;;;;17.06;59.03;101883.81;4956413;28;45477;-67
2021/08/17 00:10:57;;;;;;;;;22.75;17.75;;;;;17.03;59.67;101892.16;4927986;28;48255;-72
2021/08/17 00:13:22;;;;;;;;;22.50;18.25;;;;;17.00;59.58;101893.31;4948002;28;45646;-71
2021/08/17 00:15:48;;;;;;;;;22.00;17.00;;;;;16.96;59.52;101886.63;4957141;28;45494;-70
2021/08/17 00:18:13;;;;;;;;;19.25;18.00;;;;;16.93;60.13;101885.09;4948953;28;45730;-73
2021/08/17 00:20:39;;;;;;;;;20.75;17.25;;;;;16.92;60.67;101888.78;4955739;28;46105;-73
2021/08/17 00:23:06;;;;;;;;;21.25;17.50;;;;;16.89;60.71;101885.59;4949191;28;45570;-68
2021/08/17 00:25:33;;;;;;;;;22.00;19.00;;;;;16.85;59.95;101890.44;4928129;28;45513;-73
2021/08/17 00:27:58;;;;;;;;;20.50;20.25;;;;;16.82;60.64;101895.28;4942818;28;45580;-72
2021/08/17 00:30:23;;;;;;;;;21.50;19.50;;;;;16.78;60.19;101889.41;4949264;28;47496;-68
2021/08/17 00:32:49;;;;;;;;;21.25;17.00;;;;;16.72;61.14;101887.38;4946765;28;45580;-71
2021/08/17 00:35:14;;;;;;;;;17.25;16.75;;;;;16.66;60.63;101882.66;4949407;28;45535;-72
2021/08/17 00:37:40;;;;;;;;;19.25;18.75;;;;;16.63;61.05;101886.50;4944506;28;45657;-71
2021/08/17 00:40:06;;;;;;;;;16.50;15.75;;;;;16.59;61.25;101884.31;4946701;28;46233;-69
2021/08/17 00:42:38;;;;;;;;;19.50;15.75;;;;;16.54;61.81;101888.31;4929536;28;45540;-71
2021/08/17 00:45:04;;;;;;;;;19.50;16.00;;;;;16.51;61.44;101885.13;4947673;28;45440;-74
2021/08/17 00:47:29;;;;;;;;;22.00;17.75;;;;;16.48;61.24;101883.59;4950226;28;45703;-71
2021/08/17 00:49:54;;;;;;;;;20.50;16.00;;;;;16.45;61.61;101878.59;4954048;28;45543;-74
2021/08/17 00:52:20;;;;;;;;;25.25;18.50;;;;;16.39;61.78;101873.88;4962694;28;45515;-73
2021/08/17 00:54:46;;;;;;;;;21.75;16.50;;;;;16.37;61.84;101881.22;4948979;28;45992;-72
2021/08/17 00:57:12;;;;;;;;;24.00;17.00;;;;;16.32;62.00;101876.38;4950003;28;45614;-69
2021/08/17 00:59:37;;;;;;;;;24.75;17.75;;;;;16.29;62.19;101876.66;4958134;28;46352;-69
2021/08/17 01:02:03;;;;;;;;;18.00;17.00;;;;;16.28;62.37;101872.34;4949932;28;45807;-67
2021/08/17 01:04:30;;;;;;;;;21.00;16.50;;;;;16.26;62.58;101873.50;4944563;28;45588;-70
2021/08/17 01:06:56;;;;;;;;;19.00;15.50;;;;;16.23;62.47;101884.50;4949254;28;45911;-68
2021/08/17 01:09:21;;;;;;;;;18.00;15.75;;;;;16.20;63.02;101871.47;4948944;28;46636;-68
2021/08/17 01:11:48;;;;;;;;;19.25;12.75;;;;;16.18;63.01;101873.47;4949404;28;45500;-73
2021/08/17 01:14:15;;;;;;;;;16.25;14.25;;;;;16.16;63.30;101867.44;4946846;28;45555;-73
2021/08/17 01:16:42;;;;;;;;;17.25;14.25;;;;;16.12;63.44;101877.56;4932101;28;45453;-71
2021/08/17 01:19:15;;;;;;;;;19.00;16.50;;;;;16.10;63.23;101877.75;4950008;28;45518;-71
2021/08/17 01:21:40;;;;;;;;;23.00;14.50;;;;;16.07;63.38;101872.75;4941501;28;45547;-67
2021/08/17 01:24:06;;;;;;;;;22.75;14.75;;;;;16.05;63.44;101872.06;4949878;28;45499;-73
2021/08/17 01:26:32;;;;;;;;;15.75;14.00;;;;;16.02;63.38;101883.03;4944266;28;45520;-70
2021/08/17 01:28:57;;;;;;;;;16.00;15.00;;;;;15.99;63.77;101883.34;4947860;28;46189;-71
2021/08/17 01:31:24;;;;;;;;;19.75;14.50;;;;;15.99;64.17;101882.50;4946624;28;45590;-71
2021/08/17 01:33:49;;;;;;;;;16.25;14.25;;;;;15.96;64.03;101886.31;4951221;28;45480;-73
2021/08/17 01:36:15;;;;;;;;;17.00;14.50;;;;;15.93;64.14;101886.66;4955173;28;45587;-69
2021/08/17 01:38:47;;;;;;;;;17.00;15.25;;;;;15.91;64.59;101886.78;4952175;28;46356;-69
2021/08/17 01:41:13;;;;;;;;;17.00;13.00;;;;;15.89;64.42;101880.78;4954789;28;45513;-71
2021/08/17 01:43:39;;;;;;;;;14.75;13.00;;;;;15.88;64.40;101887.09;4941233;28;45547;-73
2021/08/17 01:46:04;;;;;;;;;14.75;13.50;;;;;15.88;64.51;101886.28;4949813;28;45494;-71
2021/08/17 01:48:31;;;;;;;;;16.75;14.75;;;;;15.87;64.87;101889.91;4947806;28;46395;-68
2021/08/17 01:50:58;;;;;;;;;17.25;14.00;;;;;15.86;64.61;101890.94;4947528;28;45584;-73
2021/08/17 01:53:28;;;;;;;;;18.75;13.25;;;;;15.85;64.63;101886.56;4952239;28;45635;-73
2021/08/17 01:55:54;;;;;;;;;17.75;16.50;;;;;15.82;64.59;101879.72;4945679;28;45803;-72
2021/08/17 01:58:21;;;;;;;;;17.50;15.00;;;;;15.83;65.06;101891.25;4942983;28;45464;-73
2021/08/17 02:00:47;;;;;;;;;15.25;12.25;;;;;15.82;65.21;101881.56;4947409;28;45702;-69
2021/08/17 02:03:12;;;;;;;;;22.75;14.00;;;;;15.79;65.06;101873.88;4949448;28;45400;-68
2021/08/17 02:05:38;;;;;;;;;20.75;15.25;;;;;15.76;65.79;101869.69;4947340;28;45542;-67
2021/08/17 02:08:04;;;;;;;;;14.50;13.75;;;;;15.73;65.16;101866.53;4944530;28;48540;-67
2021/08/17 02:10:30;;;;;;;;;17.25;12.25;;;;;15.69;65.38;101872.13;4946205;28;45520;-71
2021/08/17 02:12:56;;;;;;;;;17.75;14.25;;;;;15.68;65.23;101869.63;4936691;28;45528;-73
2021/08/17 02:15:21;;;;;;;;;15.00;13.50;;;;;15.67;65.83;101865.25;4955133;28;45547;-73
2021/08/17 02:17:47;;;;;;;;;13.00;11.00;;;;;15.66;65.63;101861.75;4946870;28;46501;-69
2021/08/17 02:20:12;;;;;;;;;16.00;11.75;;;;;15.66;65.63;101868.94;4947588;28;45860;-74
2021/08/17 02:22:38;;;;;;;;;14.00;11.25;;;;;15.64;66.00;101862.91;4947222;28;45543;-73
2021/08/17 02:25:03;;;;;;;;;17.25;13.25;;;;;15.63;65.59;101869.25;4951765;28;45639;-73
2021/08/17 02:27:37;;;;;;;;;17.25;13.75;;;;;15.62;65.89;101868.38;4945301;28;46304;-69
2021/08/17 02:30:04;;;;;;;;;18.25;14.75;;;;;15.62;65.86;101867.56;4955086;28;45619;-68
2021/08/17 02:32:29;;;;;;;;;14.00;11.00;;;;;15.61;66.11;101856.06;4947335;28;45611;-68
2021/08/17 02:34:55;;;;;;;;;18.50;12.50;;;;;15.60;66.24;101865.06;4926704;28;45535;-70
2021/08/17 02:37:20;;;;;;;;;19.00;15.00;;;;;15.59;66.46;101865.22;4943099;28;45541;-72
2021/08/17 02:39:45;;;;;;;;;18.75;14.75;;;;;15.56;66.51;101861.03;4944893;28;45857;-69
2021/08/17 02:42:11;;;;;;;;;20.00;15.00;;;;;15.55;66.20;101863.84;4953436;28;46013;-69
2021/08/17 02:44:36;;;;;;;;;21.75;17.50;;;;;15.54;66.57;101867.50;4949444;28;45711;-73
2021/08/17 02:47:02;;;;;;;;;19.50;15.25;;;;;15.52;66.67;101867.66;4947543;28;45426;-70
2021/08/17 02:49:29;;;;;;;;;17.00;13.75;;;;;15.51;66.48;101876.63;4928491;28;45455;-69
2021/08/17 02:51:54;;;;;;;;;18.25;14.75;;;;;15.50;66.92;101874.94;4949857;28;45615;-74
2021/08/17 02:54:19;;;;;;;;;15.25;14.25;;;;;15.49;67.16;101871.47;4949223;28;45546;-71
2021/08/17 02:56:45;;;;;;;;;20.75;15.25;;;;;15.47;66.77;101869.94;4930834;28;48558;-74
2021/08/17 02:59:11;;;;;;;;;18.00;12.75;;;;;15.46;66.80;101869.09;4954135;28;45504;-74
2021/08/17 03:01:36;;;;;;;;;17.25;13.75;;;;;15.44;67.07;101867.59;4950378;28;45563;-70
2021/08/17 03:04:01;;;;;;;;;20.25;13.25;;;;;15.42;67.37;101867.72;4955928;28;45447;-74
2021/08/17 03:06:27;;;;;;;;;21.50;16.75;;;;;15.40;67.06;101866.22;4950240;28;45601;-74
2021/08/17 03:08:52;;;;;;;;;20.50;13.25;;;;;15.38;66.88;101869.06;4945663;28;45475;-74
2021/08/17 03:11:17;;;;;;;;;24.00;17.25;;;;;15.37;67.32;101869.19;4941997;28;45496;-68
2021/08/17 03:13:43;;;;;;;;;21.25;16.00;;;;;15.36;68.06;101864.88;4946615;28;45638;-74
2021/08/17 03:16:08;;;;;;;;;21.75;15.75;;;;;15.35;67.78;101864.00;4942384;28;45557;-71
2021/08/17 03:18:34;;;;;;;;;15.25;14.50;;;;;15.35;67.54;101863.16;4927719;28;45404;-71
2021/08/17 03:20:59;;;;;;;;;22.25;17.25;;;;;15.33;67.57;101868.66;4944456;28;45464;-70
2021/08/17 03:23:28;;;;;;;;;19.75;15.50;;;;;15.33;67.65;101854.50;4946769;28;45683;-74
2021/08/17 03:25:55;;;;;;;;;19.75;13.25;;;;;15.31;67.84;101862.66;4943167;28;47383;-68
2021/08/17 03:28:21;;;;;;;;;16.50;14.25;;;;;15.30;68.33;101860.13;4947188;28;45523;-69
2021/08/17 03:30:46;;;;;;;;;19.75;14.00;;;;;15.28;68.41;101857.63;4950498;28;45698;-73
2021/08/17 03:33:12;;;;;;;;;17.00;14.50;;;;;15.26;68.37;101855.13;4951115;28;45487;-70
2021/08/17 03:35:37;;;;;;;;;23.00;17.25;;;;;15.27;68.06;101853.28;4948204;28;46390;-71
2021/08/17 03:38:03;;;;;;;;;18.75;14.75;;;;;15.26;67.64;101862.28;4950275;28;45532;-72
2021/08/17 03:40:29;;;;;;;;;22.00;18.00;;;;;15.23;67.67;101851.91;4950101;28;45482;-75
2021/08/17 03:42:54;;;;;;;;;18.75;16.00;;;;;15.23;68.72;101860.75;4948881;28;45532;-70
2021/08/17 03:45:21;;;;;;;;;19.00;12.75;;;;;15.23;67.89;101860.75;4947366;28;45558;-75
2021/08/17 03:47:47;;;;;;;;;20.25;15.00;;;;;15.21;68.65;101852.09;4951847;28;45458;-74
2021/08/17 03:50:14;;;;;;;;;16.50;13.75;;;;;15.20;68.00;101853.06;4942698;28;45369;-74
2021/08/17 03:52:40;;;;;;;;;18.50;13.00;;;;;15.19;67.89;101850.56;4949281;28;45480;-69
2021/08/17 03:55:06;;;;;;;;;12.00;11.00;;;;;15.17;67.76;101856.03;4944731;28;45645;-72
2021/08/17 03:57:31;;;;;;;;;17.00;15.00;;;;;15.16;68.27;101851.69;4947481;28;45564;-75
2021/08/17 03:59:57;;;;;;;;;19.50;16.00;;;;;15.13;68.18;101851.16;4950302;28;45489;-72
2021/08/17 04:02:22;;;;;;;;;19.00;14.25;;;;;15.11;67.52;101846.00;4945338;28;45465;-74
2021/08/17 04:04:49;;;;;;;;;21.50;14.00;;;;;15.12;68.47;101857.47;4944150;28;46465;-71
2021/08/17 04:07:14;;;;;;;;;19.25;15.25;;;;;15.10;68.11;101851.47;4948690;28;45568;-75
2021/08/17 04:09:39;;;;;;;;;20.50;16.50;;;;;15.07;68.40;101855.28;4946248;28;45742;-74
2021/08/17 04:12:05;;;;;;;;;21.75;17.00;;;;;15.06;68.53;101864.25;4945808;28;45674;-70
2021/08/17 04:14:31;;;;;;;;;21.75;14.00;;;;;15.03;68.22;101854.75;4943495;28;46543;-75
2021/08/17 04:16:57;;;;;;;;;17.00;14.25;;;;;15.04;68.54;101852.91;4941679;28;45454;-69
2021/08/17 04:19:26;;;;;;;;;20.25;15.25;;;;;15.03;68.52;101853.88;4959369;28;45431;-75
2021/08/17 04:21:52;;;;;;;;;15.75;12.25;;;;;15.03;68.43;101853.88;4946162;28;45534;-73
2021/08/17 04:24:18;;;;;;;;;20.00;18.25;;;;;15.03;68.30;101849.44;4940287;28;45570;-71
2021/08/17 04:26:43;;;;;;;;;14.75;12.25;;;;;15.04;68.65;101850.25;4925037;28;45616;-74
2021/08/17 04:29:09;;;;;;;;;15.00;13.00;;;;;15.03;68.90;101854.75;4946749;28;45510;-70
2021/08/17 04:31:35;;;;;;;;;16.25;13.00;;;;;15.04;68.93;101844.94;4945752;28;45512;-74
2021/08/17 04:34:00;;;;;;;;;16.25;14.25;;;;;15.04;68.85;101844.94;4947235;28;46329;-74
2021/08/17 04:36:25;;;;;;;;;16.75;13.50;;;;;15.04;68.67;101850.25;4950853;28;45532;-72
2021/08/17 04:38:51;;;;;;;;;19.00;14.50;;;;;15.03;68.75;101849.44;4949776;28;45555;-71
2021/08/17 04:41:16;;;;;;;;;16.75;13.75;;;;;15.03;68.95;101845.91;4944066;28;45525;-72
2021/08/17 04:43:41;;;;;;;;;17.75;15.25;;;;;15.03;68.56;101849.44;4947185;28;45640;-73
2021/08/17 04:46:07;;;;;;;;;12.25;11.75;;;;;15.02;69.12;101845.06;4946941;28;45988;-72
2021/08/17 04:48:32;;;;;;;;;15.25;12.00;;;;;15.03;68.88;101845.91;4950326;28;45458;-70
2021/08/17 04:50:58;;;;;;;;;12.50;10.00;;;;;15.05;68.51;101851.91;4956892;28;45692;-69
2021/08/17 04:53:24;;;;;;;;;18.75;14.00;;;;;15.05;69.24;101852.75;4933465;28;47965;-70
2021/08/17 04:55:50;;;;;;;;;15.00;12.50;;;;;15.08;69.22;101851.59;4946705;28;45652;-73
2021/08/17 04:58:15;;;;;;;;;13.75;13.00;;;;;15.11;69.04;101853.13;4946026;28;45669;-69
2021/08/17 05:00:45;;;;;;;;;13.00;11.25;;;;;15.13;68.57;101854.66;4944311;28;45539;-68
2021/08/17 05:03:11;;;;;;;;;16.50;11.50;;;;;15.14;69.35;101848.34;4929245;28;47791;-71
2021/08/17 05:05:36;;;;;;;;;13.00;10.25;;;;;15.20;68.74;101855.72;4941642;28;45500;-73
2021/08/17 05:08:11;;;;;;;;;14.75;13.25;;;;;15.25;69.63;101855.25;4927838;28;45523;-76
2021/08/17 05:10:37;;;;;;;;;21.00;13.00;;;;;15.28;69.20;101857.63;4945557;28;45785;-72
2021/08/17 05:13:03;;;;;;;;;15.00;12.25;;;;;15.33;68.86;101862.47;4927734;28;47060;-67
2021/08/17 05:15:30;;;;;;;;;15.75;11.25;;;;;15.36;68.54;101854.22;4950254;28;45446;-72
2021/08/17 05:17:55;;;;;;;;;16.25;13.00;;;;;15.40;69.63;101855.56;4946381;28;45554;-68
2021/08/17 05:20:21;;;;;;;;;17.75;11.00;;;;;15.44;68.72;101864.94;4945149;28;45469;-70
2021/08/17 05:22:47;;;;;;;;;15.25;12.00;;;;;15.51;68.55;101868.66;4942330;28;45862;-67
2021/08/17 05:25:14;;;;;;;;;14.00;11.00;;;;;15.56;68.75;101869.03;4945318;28;46237;-77
2021/08/17 05:27:39;;;;;;;;;15.00;12.75;;;;;15.60;68.61;101872.19;4948987;28;45432;-68
2021/08/17 05:30:06;;;;;;;;;15.00;13.25;;;;;15.66;67.75;101871.59;4944070;28;45641;-69
2021/08/17 05:32:32;;;;;;;;;14.75;11.25;;;;;15.71;68.37;101876.50;4938008;28;46689;-73
2021/08/17 05:34:57;;;;;;;;;16.25;13.25;;;;;15.74;68.13;101871.69;4940688;28;45604;-68
2021/08/17 05:37:23;;;;;;;;;14.50;13.50;;;;;15.77;68.19;101873.19;4942032;28;45727;-75
2021/08/17 05:39:48;;;;;;;;;15.25;12.75;;;;;15.82;68.03;101878.88;4919914;28;45635;-72
2021/08/17 05:42:13;;;;;;;;;22.25;13.50;;;;;15.87;67.96;101887.25;4929253;28;47035;-74
2021/08/17 05:44:41;;;;;;;;;19.00;12.50;;;;;15.94;67.47;101890.97;4931432;28;45583;-68
2021/08/17 05:47:07;;;;;;;;;16.00;12.00;;;;;16.06;67.91;101894.22;4943512;28;45636;-71
2021/08/17 05:49:32;;;;;;;;;16.25;13.50;;;;;16.16;67.40;101889.59;4944752;28;45934;-68
2021/08/17 05:51:58;;;;;;;;;16.00;11.50;;;;;16.27;67.62;101883.16;4934493;28;46080;-71
2021/08/17 05:54:23;;;;;;;;;14.25;11.00;;;;;16.40;66.46;101885.41;4942969;28;45538;-73
2021/08/17 05:56:50;;;;;;;;;16.75;14.00;;;;;16.50;66.85;101892.28;4944307;28;46051;-69
2021/08/17 05:59:15;;;;;;;;;14.00;12.75;;;;;16.62;66.82;101886.69;4942884;28;45903;-69
2021/08/17 06:01:41;;;;;;;;;17.25;14.00;;;;;16.74;66.00;101888.03;4943545;28;45841;-73
2021/08/17 06:04:06;;;;;;;;;14.25;11.50;;;;;16.82;66.04;101885.44;4939485;28;45527;-77
2021/08/17 06:06:32;;;;;;;;;17.50;15.00;;;;;16.91;65.45;101889.81;4936757;28;45466;-70
2021/08/17 06:08:57;;;;;;;;;17.00;15.25;;;;;16.98;65.22;101885.44;4937672;28;45628;-67
2021/08/17 06:11:23;;;;;;;;;13.25;12.50;;;;;17.06;65.11;101887.34;4940323;28;54324;-70
2021/08/17 06:13:48;;;;;;;;;16.00;14.25;;;;;17.17;65.86;101886.16;4938662;28;45428;-68
2021/08/17 06:16:14;;;;;;;;;18.50;14.00;;;;;17.29;64.91;101890.19;4935516;28;45687;-74
2021/08/17 06:18:39;;;;;;;;;16.75;12.00;;;;;17.44;64.43;101889.53;4939025;28;45569;-68
2021/08/17 06:21:05;;;;;;;;;14.25;13.25;;;;;17.59;64.56;101887.88;4938086;28;45567;-76
2021/08/17 06:23:30;;;;;;;;;14.00;12.25;;;;;17.74;63.27;101896.03;4934059;28;45550;-67
2021/08/17 06:25:56;;;;;;;;;16.75;14.75;;;;;17.93;64.15;101897.56;4939628;28;45634;-68
2021/08/17 06:28:21;;;;;;;;;16.75;14.50;;;;;18.12;63.52;101897.16;4925931;28;45429;-69
2021/08/17 06:30:46;;;;;;;;;18.00;16.75;;;;;18.31;62.91;101898.63;4944957;28;46268;-73
2021/08/17 06:33:12;;;;;;;;;16.50;14.25;;;;;18.43;62.13;101896.41;4950186;28;45544;-69
2021/08/17 06:35:37;;;;;;;;;21.00;15.25;;;;;18.57;61.86;101898.38;4945794;28;45542;-72
2021/08/17 06:38:03;;;;;;;;;20.00;15.25;;;;;18.65;60.90;101900.19;4930176;28;45635;-75
2021/08/17 06:40:29;;;;;;;;;17.50;15.25;;;;;18.67;61.10;101885.63;4949044;28;45677;-72
2021/08/17 06:42:54;;;;;;;;;14.25;13.50;;;;;18.72;60.65;101890.44;4944214;28;45535;-71
2021/08/17 06:45:21;;;;;;;;;18.75;15.25;;;;;18.84;61.06;101890.91;4943634;28;46104;-75
2021/08/17 06:47:50;;;;;;;;;20.00;17.50;;;;;18.95;60.46;101898.53;4938267;28;45623;-76
2021/08/17 06:50:16;;;;;;;;;21.25;16.25;;;;;19.11;60.03;101895.78;4942140;28;46292;-68
2021/08/17 06:52:43;;;;;;;;;19.00;16.50;;;;;19.31;60.10;101901.50;4933967;28;45504;-69
2021/08/17 06:55:10;;;;;;;;;14.75;12.00;;;;;19.58;59.53;101903.78;4950575;28;45401;-72
2021/08/17 06:57:35;;;;;;;;;13.25;12.50;;;;;19.88;59.55;101896.66;4947328;28;45701;-67
2021/08/17 07:00:02;;;;;;;;;16.75;13.50;;;;;20.17;58.16;101903.91;4951342;28;46032;-80
2021/08/17 07:02:27;;;;;;;;;16.50;13.50;;;;;20.45;55.45;101901.44;4944984;28;45687;-73
2021/08/17 07:04:53;;;;;;;;;22.75;13.75;;;;;20.52;56.18;101906.88;4938789;28;45809;-69
2021/08/17 07:07:18;;;;;;;;;19.75;16.00;;;;;20.66;56.32;101897.16;4943935;28;45522;-69
2021/08/17 07:09:43;;;;;;;;;13.25;11.25;;;;;20.79;56.77;101890.09;4945542;28;45557;-69
2021/08/17 07:12:10;;;;;;;;;16.50;12.50;;;;;21.01;56.57;101887.44;4942033;28;52336;-68
2021/08/17 07:14:36;;;;;;;;;14.00;12.00;;;;;21.20;55.22;101889.50;4949465;28;45461;-69
2021/08/17 07:17:01;;;;;;;;;15.00;12.25;;;;;21.41;55.80;101887.84;4951795;28;45487;-75
2021/08/17 07:19:26;;;;;;;;;15.50;11.50;;;;;21.71;55.04;101882.31;4946422;28;46706;-79
2021/08/17 07:21:53;;;;;;;;;15.00;11.25;;;;;21.99;54.54;101888.53;4948684;28;45467;-76
2021/08/17 07:24:18;;;;;;;;;13.50;12.25;;;;;22.14;53.23;101887.59;4956723;28;45465;-73
2021/08/17 07:26:43;;;;;;;;;16.25;13.75;;;;;22.38;53.21;101889.81;4950266;28;45513;-77
2021/08/17 07:29:09;;;;;;;;;10.50;9.25;;;;;22.46;53.21;101892.34;4946638;28;45685;-69
2021/08/17 07:31:36;;;;;;;;;11.50;9.75;;;;;22.58;52.19;101900.69;4941554;28;45633;-73
2021/08/17 07:34:02;;;;;;;;;16.75;14.00;;;;;22.67;52.53;101895.94;4939211;28;46343;-73
2021/08/17 07:36:29;;;;;;;;;18.00;12.75;;;;;22.99;50.91;101896.28;4948869;28;45646;-69
2021/08/17 07:38:54;;;;;;;;;22.25;11.50;;;;;23.09;50.72;101902.94;4947660;28;46090;-78
2021/08/17 07:41:20;;;;;;;;;11.75;8.50;;;;;23.12;50.58;101904.38;4952574;28;45437;-68
2021/08/17 07:43:45;;;;;;;;;12.25;10.00;;;;;23.33;50.05;101901.53;4946745;28;45569;-73
2021/08/17 07:46:10;;;;;;;;;13.75;10.50;;;;;23.78;50.50;101901.75;4946619;28;45381;-72
2021/08/17 07:48:36;;;;;;;;;14.50;11.75;;;;;25.05;49.01;101898.66;4952396;28;45918;-69
2021/08/17 07:51:01;;;;;;;;;16.50;12.00;;;;;26.10;46.96;101895.31;4953581;28;45898;-73
2021/08/17 07:53:27;;;;;;;;;17.00;12.75;;;;;27.03;45.78;101892.28;4962042;28;45297;-69
2021/08/17 07:55:52;;;;;;;;;18.00;13.00;;;;;27.96;44.01;101894.56;4954352;28;45472;-73
2021/08/17 07:58:17;;;;;;;;;13.25;8.50;;;;;29.17;42.28;101896.44;4942479;28;45594;-73
2021/08/17 08:00:43;;;;;;;;;12.50;10.00;;;;;29.85;39.96;101894.53;4947307;28;45424;-72
2021/08/17 08:03:08;;;;;;;;;10.50;9.50;;;;;30.35;40.98;101893.59;4948114;28;45473;-70
2021/08/17 08:05:33;;;;;;;;;13.50;9.75;;;;;32.28;38.35;101893.59;4936369;28;46025;-73
2021/08/17 08:07:59;;;;;;;;;12.50;11.75;;;;;34.28;33.88;101893.63;4946001;28;45613;-73
2021/08/17 08:10:24;;;;;;;;;11.00;10.50;;;;;35.52;33.65;101899.91;4956371;28;45429;-76
2021/08/17 08:12:49;;;;;;;;;14.25;10.25;;;;;36.61;32.32;101898.38;4956252;28;45552;-74
2021/08/17 08:15:15;;;;;;;;;13.50;9.00;;;;;37.47;29.14;101900.03;4955182;28;45548;-73
2021/08/17 08:17:40;;;;;;;;;11.75;10.00;;;;;37.79;28.78;101908.25;4959584;28;45377;-74
2021/08/17 08:20:07;;;;;;;;;11.00;10.00;;;;;36.57;24.58;101911.09;4955429;28;45570;-70
2021/08/17 08:22:32;;;;;;;;;8.75;8.00;;;;;36.14;27.91;101908.34;4946578;28;45536;-76
2021/08/17 08:24:57;;;;;;;;;10.25;9.00;;;;;36.68;29.91;101904.31;4950751;28;45444;-73
2021/08/17 08:27:23;;;;;;;;;9.25;7.50;;;;;38.07;28.42;101911.03;4963494;28;45808;-69
2021/08/17 08:29:48;;;;;;;;;9.50;9.00;;;;;37.72;27.78;101913.34;4952825;28;46171;-73
2021/08/17 08:32:14;;;;;;;;;6.25;6.25;;;;;36.71;28.38;101914.72;4947155;28;45705;-73
2021/08/17 08:34:39;;;;;;;;;8.00;7.00;;;;;35.64;29.70;101924.28;4933706;28;45657;-73
2021/08/17 08:37:05;;;;;;;;;8.50;8.25;;;;;35.24;29.92;101918.84;4950907;28;46112;-73
2021/08/17 08:39:33;;;;;;;;;8.75;8.25;;;;;34.30;30.56;101921.59;4957304;28;45510;-73
2021/08/17 08:41:58;;;;;;;;;11.75;6.50;;;;;33.05;31.78;101915.72;4952133;28;45990;-74
2021/08/17 08:44:24;;;;;;;;;7.25;7.00;;;;;31.81;33.14;101916.28;4954286;28;45635;-80
2021/08/17 08:46:50;;;;;;;;;6.50;6.25;;;;;30.65;34.80;101921.22;4949564;28;45452;-72
2021/08/17 08:49:17;;;;;;;;;7.50;7.25;;;;;29.66;35.24;101930.22;4950114;28;45818;-67
2021/08/17 08:51:43;;;;;;;;;8.75;8.75;;;;;28.89;37.09;101926.13;4951864;28;46195;-74
2021/08/17 08:54:08;;;;;;;;;8.50;7.00;;;;;28.29;37.72;101926.53;4948340;28;45612;-70
2021/08/17 08:56:34;;;;;;;;;9.75;7.50;;;;;28.01;38.48;101927.28;4950206;28;45765;-74
2021/08/17 08:59:00;;;;;;;;;9.50;8.75;;;;;28.01;38.62;101928.09;4952178;28;45453;-72
2021/08/17 09:01:26;;;;;;;;;8.50;6.75;;;;;27.72;38.72;101926.28;4946382;28;45508;-71
2021/08/17 09:03:53;;;;;;;;;8.25;7.00;;;;;27.35;39.29;101921.03;4950006;28;45565;-80
2021/08/17 09:06:23;;;;;;;;;10.75;8.00;;;;;27.25;39.79;101918.94;4952048;28;46659;-71
2021/08/17 09:09:18;;;;;;;;;7.75;6.00;;;;;27.50;39.78;101918.72;4946246;28;45449;-72
2021/08/17 09:11:47;;;;;;;;;7.00;5.50;;;;;27.67;38.60;101916.97;4940510;28;45663;-68
2021/08/17 09:14:17;;;;;;;;;7.25;6.25;;;;;27.41;38.67;101920.13;4950990;28;45426;-80
2021/08/17 09:16:44;;;;;;;;;11.00;7.50;;;;;27.28;39.49;101909.50;4950986;28;45563;-71
2021/08/17 09:19:21;;;;;;;;;10.50;7.00;;;;;28.18;40.09;101905.63;4940696;28;45586;-68
2021/08/17 09:21:47;;;;;;;;;8.75;7.75;;;;;29.02;37.81;101908.69;4947721;28;45590;-72
2021/08/17 09:24:27;;;;;;;;;10.75;6.00;;;;;29.54;37.06;101910.41;4939464;28;45488;-72
2021/08/17 09:26:55;;;;;;;;;7.75;5.25;;;;;29.40;36.78;101909.91;4944403;28;45544;-72
2021/08/17 09:29:36;;;;;;;;;7.25;6.00;;;;;29.03;37.13;101909.50;4946241;28;45611;-72
2021/08/17 09:32:12;;;;;;;;;8.00;7.00;;;;;28.55;37.83;101902.63;4936863;28;45609;-74
2021/08/17 09:34:38;;;;;;;;;8.00;6.00;;;;;27.96;38.17;101903.53;4951661;28;45516;-79
2021/08/17 09:37:09;;;;;;;;;8.25;8.00;;;;;27.35;38.81;101904.75;4930980;28;46286;-80
2021/08/17 09:39:40;;;;;;;;;10.25;7.00;;;;;26.65;39.34;101900.72;4965933;28;45508;-72
2021/08/17 09:42:18;;;;;;;;;8.25;5.75;;;;;25.87;41.02;101902.22;4966560;28;45951;-68
2021/08/17 09:44:46;;;;;;;;;8.00;6.00;;;;;25.22;41.69;101904.38;4944616;28;45553;-73
2021/08/17 09:47:12;;;;;;;;;13.00;8.00;;;;;24.58;42.79;101904.31;4948606;28;46570;-71
2021/08/17 09:49:37;;;;;;;;;7.00;7.00;;;;;24.06;43.42;101903.41;4944991;28;45516;-80
2021/08/17 09:52:16;;;;;;;;;12.25;8.00;;;;;23.70;44.19;101899.25;4945297;28;45654;-74
2021/08/17 09:54:46;;;;;;;;;8.25;7.25;;;;;23.58;44.87;101895.50;4944863;28;45519;-70
2021/08/17 09:57:12;;;;;;;;;6.50;6.50;;;;;23.46;44.48;101897.16;4942557;28;45877;-74
2021/08/17 09:59:41;;;;;;;;;8.50;7.00;;;;;23.26;46.40;101897.16;4950322;28;45513;-74
2021/08/17 10:02:07;;;;;;;;;8.00;6.50;;;;;23.06;45.68;101899.81;4945953;28;45597;-71
2021/08/17 10:04:35;;;;;;;;;7.00;6.00;;;;;22.81;46.11;101900.34;4949780;28;45480;-72
2021/08/17 10:07:03;;;;;;;;;8.00;7.00;;;;;22.54;46.62;101899.41;4943326;28;46717;-70
2021/08/17 10:09:29;;;;;;;;;6.50;5.75;;;;;22.29;47.43;101897.22;4947712;28;45538;-69
2021/08/17 10:11:55;;;;;;;;;7.00;6.00;;;;;22.09;47.31;101894.38;4947286;28;45516;-74
2021/08/17 10:14:21;;;;;;;;;9.00;8.00;;;;;21.94;47.59;101888.28;4941925;28;45493;-72
2021/08/17 10:16:47;;;;;;;;;5.25;5.00;;;;;21.84;47.97;101893.19;4941135;28;46303;-74
2021/08/17 10:19:16;;;;;;;;;7.75;7.00;;;;;21.73;48.34;101896.41;4934240;28;45478;-73
2021/08/17 10:21:45;;;;;;;;;8.75;7.75;;;;;21.58;47.86;101891.09;4949612;28;45492;-69
2021/08/17 10:24:33;;;;;;;;;8.00;7.00;;;;;21.35;48.53;101888.63;4939105;28;45554;-77
2021/08/17 10:27:25;;;;;;;;;8.50;6.00;;;;;21.19;48.89;101895.91;4937564;28;46657;-72
2021/08/17 10:30:00;;;;;;;;;8.50;6.75;;;;;21.09;49.31;101895.38;4936374;28;45869;-69
2021/08/17 10:32:43;;;;;;;;;8.00;8.00;;;;;21.04;49.74;101889.75;4937979;28;45521;-72
2021/08/17 10:35:27;;;;;;;;;10.25;6.50;;;;;21.07;51.15;101897.44;4933351;28;45712;-70
2021/08/17 10:38:07;;;;;;;;;9.50;7.00;;;;;21.18;50.96;101888.03;4946143;28;45758;-72
2021/08/17 10:40:51;;;;;;;;;8.00;8.00;;;;;21.38;50.53;101882.84;4942177;28;45889;-75
2021/08/17 10:43:18;;;;;;;;;11.75;7.00;;;;;21.55;49.44;101881.56;4948063;28;45551;-72
2021/08/17 10:45:57;;;;;;;;;9.00;8.00;;;;;21.73;49.82;101877.56;4945933;28;45935;-71
2021/08/17 10:48:43;;;;;;;;;8.75;7.25;;;;;21.90;49.06;101876.25;4944565;28;46360;-76
2021/08/17 10:51:10;;;;;;;;;5.75;5.75;;;;;22.06;49.04;101872.44;4943563;28;45517;-74
2021/08/17 10:53:37;;;;;;;;;11.00;9.00;;;;;22.25;48.80;101866.31;4946523;28;45621;-76
2021/08/17 10:56:20;;;;;;;;;6.00;6.00;;;;;22.49;48.24;101856.91;4939044;28;49876;-76
2021/08/17 10:58:49;;;;;;;;;8.25;7.00;;;;;22.65;47.87;101858.44;4951678;28;46493;-74
2021/08/17 11:01:37;;;;;;;;;9.50;6.75;;;;;22.71;48.53;101859.47;4937142;28;45542;-71
2021/08/17 11:04:13;;;;;;;;;9.00;7.25;;;;;22.62;46.90;101860.69;4948345;28;45473;-75
2021/08/17 11:06:47;;;;;;;;;6.25;6.00;;;;;22.59;47.77;101855.72;4943072;28;45519;-77
2021/08/17 11:09:33;;;;;;;;;9.25;7.00;;;;;22.65;47.60;101854.88;4944644;28;47361;-69
2021/08/17 11:12:03;;;;;;;;;8.50;7.25;;;;;22.75;46.82;101858.06;4940588;28;45553;-79